Time;durP1;ratioP1;P1;durP2;ratioP2;P2;SDS_P1;SDS_P2;PMS_P1;PMS_P2;Temp;Humidity;BMP_temperature;BMP_pressure;BME280_temperature;BME280_humidity;BME280_pressure;Samples;Min_cycle;Max_cycle;Signal;HPM_P1;HPM_P2
2024/01/29 00:01:40;;;;;;;9.68;4.95;;;;;;;-0.46;100.00;102346.94;5071583;28;20492;-53
2024/01/29 00:04:08;;;;;;;8.52;5.07;;;;;;;-0.44;100.00;102342.63;5070405;28;20492;-50
2024/01/29 00:06:36;;;;;;;9.52;4.78;;;;;;;-0.47;100.00;102334.88;5072193;28;20117;-50
2024/01/29 00:09:05;;;;;;;10.85;5.20;;;;;;;-0.46;100.00;102346.94;5072184;28;20549;-50
2024/01/29 00:11:33;;;;;;;9.13;4.80;;;;;;;-0.46;100.00;102338.31;5068692;28;20083;-52
2024/01/29 00:14:02;;;;;;;9.85;4.50;;;;;;;-0.48;100.00;102345.19;5069825;28;20131;-50
2024/01/29 00:16:31;;;;;;;8.77;4.82;;;;;;;-0.48;100.00;102335.72;5072239;28;20480;-51
2024/01/29 00:19:00;;;;;;;9.00;4.05;;;;;;;-0.49;100.00;102340.88;5071979;28;20040;-51
2024/01/29 00:21:28;;;;;;;9.63;5.07;;;;;;;-0.49;100.00;102335.72;5072156;28;20044;-50
2024/01/29 00:23:59;;;;;;;9.40;4.72;;;;;;;-0.52;100.00;102342.63;5071949;28;20048;-52
2024/01/29 00:26:28;;;;;;;8.73;4.50;;;;;;;-0.53;100.00;102342.59;5071095;28;20775;-50
2024/01/29 00:28:57;;;;;;;8.48;3.83;;;;;;;-0.57;100.00;102339.13;5068214;28;20053;-54
2024/01/29 00:31:26;;;;;;;9.52;4.30;;;;;;;-0.58;100.00;102339.97;5070285;28;20045;-50
2024/01/29 00:33:55;;;;;;;8.23;4.63;;;;;;;-0.58;100.00;102339.13;5071801;28;20110;-50
2024/01/29 00:36:24;;;;;;;7.32;3.90;;;;;;;-0.60;100.00;102344.28;5068373;28;20503;-50
2024/01/29 00:38:52;;;;;;;8.07;4.07;;;;;;;-0.60;100.00;102343.41;5067911;28;20041;-51
2024/01/29 00:41:20;;;;;;;11.02;4.60;;;;;;;-0.64;100.00;102342.53;5068442;28;20435;-53
2024/01/29 00:43:48;;;;;;;10.23;4.90;;;;;;;-0.66;100.00;102344.25;5068672;28;20511;-51
2024/01/29 00:46:19;;;;;;;9.82;5.00;;;;;;;-0.66;100.00;102346.81;5069561;28;20560;-53
2024/01/29 00:48:48;;;;;;;10.38;5.63;;;;;;;-0.67;100.00;102347.69;5072561;28;20044;-50
2024/01/29 00:51:18;;;;;;;11.18;5.15;;;;;;;-0.70;100.00;102343.34;5070879;28;20444;-50
2024/01/29 00:53:47;;;;;;;10.00;5.55;;;;;;;-0.72;100.00;102339.06;5072951;28;20495;-50
2024/01/29 00:56:15;;;;;;;10.18;4.38;;;;;;;-0.73;100.00;102345.06;5072020;28;20045;-50
2024/01/29 00:58:44;;;;;;;10.75;5.68;;;;;;;-0.75;100.00;102342.47;5072540;28;20407;-51
2024/01/29 01:01:12;;;;;;;10.63;4.95;;;;;;;-0.76;100.00;102347.66;5074261;28;20055;-49
2024/01/29 01:03:40;;;;;;;9.27;4.95;;;;;;;-0.76;100.00;102348.50;5074384;28;20040;-53
2024/01/29 01:06:10;;;;;;;10.25;4.93;;;;;;;-0.76;100.00;102343.34;5071742;28;20045;-53
2024/01/29 01:08:40;;;;;;;9.52;4.90;;;;;;;-0.64;100.00;102346.84;5071668;28;20044;-52
2024/01/29 01:11:08;;;;;;;9.63;4.63;;;;;;;-0.67;100.00;102347.69;5071230;28;20345;-52
2024/01/29 01:13:36;;;;;;;8.25;4.63;;;;;;;-0.73;100.00;102347.66;5071532;28;20854;-53
2024/01/29 01:16:05;;;;;;;10.30;4.85;;;;;;;-0.76;100.00;102358.84;5070125;28;20042;-51
2024/01/29 01:18:33;;;;;;;9.90;5.10;;;;;;;-0.80;100.00;102351.06;5071195;28;20052;-50
2024/01/29 01:21:01;;;;;;;9.80;5.38;;;;;;;-0.83;100.00;102353.59;5071221;28;20060;-49
2024/01/29 01:23:30;;;;;;;10.55;4.90;;;;;;;-0.85;100.00;102351.03;5071838;28;20056;-50
2024/01/29 01:25:59;;;;;;;12.55;5.35;;;;;;;-0.86;100.00;102349.28;5071033;28;20041;-50
2024/01/29 01:28:27;;;;;;;10.02;5.15;;;;;;;-0.91;100.00;102351.84;5074237;28;20076;-50
2024/01/29 01:30:55;;;;;;;9.48;4.75;;;;;;;-0.89;100.00;102355.28;5069949;28;20523;-50
2024/01/29 01:33:24;;;;;;;10.63;4.85;;;;;;;-0.89;100.00;102362.19;5072485;28;20119;-52
2024/01/29 01:35:52;;;;;;;9.30;4.95;;;;;;;-0.90;100.00;102356.16;5074760;28;20040;-50
2024/01/29 01:38:20;;;;;;;8.77;4.70;;;;;;;-0.92;100.00;102352.69;5074845;28;20051;-50
2024/01/29 01:40:48;;;;;;;9.00;4.70;;;;;;;-0.91;100.00;102354.44;5071393;28;20415;-52
2024/01/29 01:43:23;;;;;;;8.38;4.70;;;;;;;-0.86;100.00;102355.34;5072176;28;20048;-52
2024/01/29 01:46:15;;;;;;;11.23;5.40;;;;;;;-0.85;100.00;102363.94;5074508;28;20067;-52
2024/01/29 01:48:44;;;;;;;10.30;5.05;;;;;;;-0.85;100.00;102356.19;5072468;28;20183;-50
2024/01/29 01:51:13;;;;;;;10.52;4.57;;;;;;;-0.83;100.00;102356.19;5070381;28;20044;-50
2024/01/29 01:53:42;;;;;;;9.00;4.25;;;;;;;-0.85;100.00;102356.19;5070821;28;20525;-50
2024/01/29 01:56:11;;;;;;;8.05;4.80;;;;;;;-0.83;100.00;102353.59;5070906;28;20797;-53
2024/01/29 01:58:41;;;;;;;9.43;4.60;;;;;;;-0.87;100.00;102361.34;5072810;28;20059;-51
2024/01/29 02:01:10;;;;;;;8.52;4.80;;;;;;;-0.85;100.00;102343.28;5071752;28;20044;-51
2024/01/29 02:03:40;;;;;;;10.05;4.70;;;;;;;-0.86;100.00;102338.94;5069511;28;20588;-52
2024/01/29 02:06:08;;;;;;;9.70;4.80;;;;;;;-0.87;100.00;102350.16;5071082;28;20111;-51
2024/01/29 02:08:36;;;;;;;9.00;5.20;;;;;;;-0.80;100.00;102351.91;5072068;28;20062;-51
2024/01/29 02:11:04;;;;;;;8.85;5.10;;;;;;;-0.70;100.00;102350.25;5074294;28;20052;-52
2024/01/29 02:13:33;;;;;;;9.70;5.70;;;;;;;-0.60;100.00;102349.47;5074362;28;20047;-52
2024/01/29 02:16:03;;;;;;;10.70;5.47;;;;;;;-0.54;100.00;102351.22;5073457;28;20045;-50
2024/01/29 02:18:31;;;;;;;10.70;4.78;;;;;;;-0.52;100.00;102359.81;5073468;28;20075;-50
2024/01/29 02:21:00;;;;;;;10.77;5.40;;;;;;;-0.54;100.00;102358.97;5073573;28;20048;-50
2024/01/29 02:23:29;;;;;;;9.85;5.40;;;;;;;-0.56;100.00;102358.06;5073632;28;20380;-51
2024/01/29 02:25:58;;;;;;;10.20;5.47;;;;;;;-0.59;100.00;102361.50;5073680;28;20495;-50
2024/01/29 02:28:27;;;;;;;8.93;4.97;;;;;;;-0.53;100.00;102355.53;5073723;28;20090;-53
2024/01/29 02:30:56;;;;;;;10.68;5.13;;;;;;;-0.55;100.00;102358.09;5073429;28;20545;-50
2024/01/29 02:33:24;;;;;;;10.05;4.90;;;;;;;-0.52;100.00;102358.13;5072569;28;20503;-50
2024/01/29 02:35:52;;;;;;;11.50;5.43;;;;;;;-0.22;100.00;102358.25;5069746;28;20131;-55
2024/01/29 02:38:20;;;;;;;10.73;5.20;;;;;;;-0.10;100.00;102362.59;5070171;28;20074;-49
2024/01/29 02:40:50;;;;;;;8.00;5.00;;;;;;;-0.03;100.00;102356.59;5070367;28;20102;-46
2024/01/29 02:43:18;;;;;;;9.52;4.68;;;;;;;-0.07;100.00;102363.50;5069788;28;20041;-46
2024/01/29 02:45:47;;;;;;;10.00;5.05;;;;;;;-0.01;100.00;102370.41;5067496;28;20052;-47
2024/01/29 02:48:15;;;;;;;8.82;4.72;;;;;;;0.01;100.00;102368.66;5070205;28;20090;-46
2024/01/29 02:50:43;;;;;;;10.00;4.78;;;;;;;0.02;100.00;102370.41;5071303;28;20056;-47
2024/01/29 02:53:11;;;;;;;11.35;5.15;;;;;;;0.05;100.00;102367.81;5073585;28;20434;-45
2024/01/29 02:55:39;;;;;;;11.88;4.85;;;;;;;0.12;100.00;102366.13;5069737;28;20047;-47
2024/01/29 02:58:11;;;;;;;12.13;4.70;;;;;;;0.19;100.00;102361.81;5069697;28;20064;-46
2024/01/29 03:00:40;;;;;;;10.15;5.00;;;;;;;0.16;100.00;102363.56;5068307;28;20063;-46
2024/01/29 03:03:08;;;;;;;11.10;4.88;;;;;;;0.13;100.00;102362.69;5071646;28;20048;-47
2024/01/29 03:05:39;;;;;;;10.32;4.65;;;;;;;0.10;100.00;102349.75;5072915;28;20056;-47
2024/01/29 03:08:07;;;;;;;8.30;4.47;;;;;;;0.11;100.00;102354.91;5069909;28;20536;-45
2024/01/29 03:10:37;;;;;;;9.18;5.28;;;;;;;0.12;100.00;102355.75;5069326;28;20452;-47
2024/01/29 03:13:05;;;;;;;9.75;4.88;;;;;;;0.09;100.00;102351.44;5069646;28;20102;-48
2024/01/29 03:15:35;;;;;;;10.27;4.70;;;;;;;0.05;100.00;102360.06;5069685;28;20058;-47
2024/01/29 03:18:04;;;;;;;8.75;4.90;;;;;;;0.02;100.00;102354.88;5072804;28;20048;-45
2024/01/29 03:20:32;;;;;;;8.13;4.60;;;;;;;0.09;100.00;102356.63;5072832;28;20041;-45
2024/01/29 03:23:00;;;;;;;9.88;4.75;;;;;;;0.16;100.00;102352.31;5069821;28;20052;-47
2024/01/29 03:25:28;;;;;;;9.88;4.55;;;;;;;0.12;100.00;102356.66;5068684;28;20508;-47
2024/01/29 03:27:59;;;;;;;8.95;5.07;;;;;;;0.14;100.00;102356.66;5070643;28;20110;-45
2024/01/29 03:30:27;;;;;;;8.65;4.85;;;;;;;0.14;100.00;102354.06;5072245;28;20109;-45
2024/01/29 03:32:57;;;;;;;9.43;5.50;;;;;;;0.09;100.00;102360.94;5069921;28;20048;-46
2024/01/29 03:35:25;;;;;;;8.63;4.03;;;;;;;0.02;100.00;102354.88;5068703;28;20416;-47
2024/01/29 03:37:53;;;;;;;8.75;4.75;;;;;;;-0.03;100.00;102354.00;5069762;28;20044;-45
2024/01/29 03:40:24;;;;;;;8.50;4.57;;;;;;;-0.09;100.00;102356.59;5072779;28;20451;-46
2024/01/29 03:42:55;;;;;;;8.23;4.63;;;;;;;-0.13;100.00;102362.59;5073075;28;20059;-46
2024/01/29 03:45:23;;;;;;;9.32;4.47;;;;;;;-0.17;100.00;102367.75;5071960;28;20535;-51
2024/01/29 03:47:52;;;;;;;9.32;4.45;;;;;;;-0.21;100.00;102357.38;5071828;28;20044;-46
2024/01/29 03:50:21;;;;;;;9.25;4.85;;;;;;;-0.26;100.00;102365.13;5072225;28;20072;-46
2024/01/29 03:52:50;;;;;;;9.73;4.30;;;;;;;-0.26;100.00;102366.84;5072145;28;20040;-47
2024/01/29 03:55:18;;;;;;;9.55;4.22;;;;;;;-0.32;100.00;102365.09;5072339;28;20087;-46
2024/01/29 03:57:47;;;;;;;8.68;4.53;;;;;;;-0.33;100.00;102362.50;5072517;28;20515;-46
2024/01/29 04:00:18;;;;;;;8.95;4.70;;;;;;;-0.34;100.00;102366.81;5072501;28;20096;-45
2024/01/29 04:02:49;;;;;;;9.57;5.10;;;;;;;-0.38;100.00;102372.84;5069368;28;20045;-46
2024/01/29 04:05:17;;;;;;;8.13;4.50;;;;;;;-0.43;100.00;102359.03;5069988;28;20491;-46
2024/01/29 04:07:49;;;;;;;10.35;5.20;;;;;;;-0.42;100.00;102371.09;5072428;28;20064;-47
2024/01/29 04:10:18;;;;;;;9.10;4.97;;;;;;;-0.43;100.00;102375.38;5069516;28;20431;-49
2024/01/29 04:12:46;;;;;;;9.48;5.43;;;;;;;-0.48;100.00;102373.63;5069069;28;20052;-45
2024/01/29 04:15:14;;;;;;;7.85;4.85;;;;;;;-0.53;100.00;102371.03;5071980;28;20396;-48
2024/01/29 04:17:42;;;;;;;9.82;4.97;;;;;;;-0.57;100.00;102370.16;5072174;28;20048;-45
2024/01/29 04:20:11;;;;;;;8.82;5.05;;;;;;;-0.61;100.00;102378.75;5073701;28;20062;-46
2024/01/29 04:22:39;;;;;;;8.73;4.07;;;;;;;-0.64;100.00;102370.97;5074172;28;20056;-45
2024/01/29 04:25:09;;;;;;;8.45;4.43;;;;;;;-0.68;100.00;102369.22;5072193;28;20055;-48
2024/01/29 04:27:38;;;;;;;8.43;4.93;;;;;;;-0.69;100.00;102377.81;5075695;28;20033;-46
2024/01/29 04:30:08;;;;;;;11.27;4.93;;;;;;;-0.71;100.00;102369.19;5076250;28;20047;-47
2024/01/29 04:32:36;;;;;;;7.70;4.30;;;;;;;-0.76;100.00;102371.75;5075888;28;20129;-48
2024/01/29 04:35:04;;;;;;;10.43;4.70;;;;;;;-0.76;100.00;102368.31;5075722;28;20044;-46
2024/01/29 04:37:33;;;;;;;7.55;4.35;;;;;;;-0.78;100.00;102363.13;5075259;28;20045;-45
2024/01/29 04:40:02;;;;;;;9.25;4.63;;;;;;;-0.81;100.00;102363.09;5075437;28;20059;-45
2024/01/29 04:42:32;;;;;;;8.20;4.60;;;;;;;-0.80;100.00;102366.56;5075946;28;20542;-45
2024/01/29 04:45:00;;;;;;;8.75;4.65;;;;;;;-0.81;100.00;102372.59;5074166;28;20052;-45
2024/01/29 04:47:28;;;;;;;8.43;4.57;;;;;;;-0.84;100.00;102367.41;5074405;28;20044;-45
2024/01/29 04:49:57;;;;;;;9.07;4.93;;;;;;;-0.84;100.00;102368.25;5074226;28;20458;-46
2024/01/29 04:52:25;;;;;;;9.23;4.60;;;;;;;-0.86;100.00;102368.25;5075664;28;20537;-47
2024/01/29 04:54:53;;;;;;;9.93;4.88;;;;;;;-0.87;100.00;102369.09;5075547;28;20051;-46
2024/01/29 04:57:22;;;;;;;8.80;4.72;;;;;;;-0.89;100.00;102364.78;5075588;28;20048;-51
2024/01/29 04:59:56;;;;;;;8.88;4.82;;;;;;;-0.89;100.00;102364.78;5075527;28;20125;-46
2024/01/29 05:02:25;;;;;;;13.18;5.18;;;;;;;-0.92;100.00;102363.03;5072791;28;20082;-54
2024/01/29 05:04:53;;;;;;;8.23;4.28;;;;;;;-0.94;100.00;102367.34;5071836;28;20128;-54
2024/01/29 05:07:21;;;;;;;10.82;5.20;;;;;;;-0.96;100.00;102371.59;5072194;28;20082;-46
2024/01/29 05:09:49;;;;;;;9.20;4.95;;;;;;;-0.98;100.00;102370.75;5071973;28;20392;-46
2024/01/29 05:12:18;;;;;;;9.40;4.88;;;;;;;-1.00;100.00;102363.84;5074103;28;20052;-54
2024/01/29 05:14:46;;;;;;;9.73;5.07;;;;;;;-1.03;100.00;102368.13;5070830;28;20087;-54
2024/01/29 05:17:16;;;;;;;9.27;4.63;;;;;;;-1.03;100.00;102364.69;5073525;28;20131;-50
2024/01/29 05:19:45;;;;;;;10.45;4.97;;;;;;;-1.04;100.00;102366.41;5074858;28;20121;-51
2024/01/29 05:22:13;;;;;;;9.90;5.07;;;;;;;-1.04;100.00;102365.53;5075430;28;20127;-51
2024/01/29 05:24:42;;;;;;;8.77;5.40;;;;;;;-1.04;100.00;102363.81;5073399;28;20410;-49
2024/01/29 05:27:10;;;;;;;9.23;5.25;;;;;;;-1.06;100.00;102365.50;5070255;28;20049;-53
2024/01/29 05:29:38;;;;;;;10.38;5.63;;;;;;;-1.09;100.00;102360.34;5072668;28;20080;-51
2024/01/29 05:32:07;;;;;;;9.65;5.10;;;;;;;-1.10;100.00;102363.75;5074357;28;20053;-49
2024/01/29 05:34:36;;;;;;;9.27;4.63;;;;;;;-1.12;100.00;102362.03;5075062;28;20079;-50
2024/01/29 05:37:04;;;;;;;10.30;5.28;;;;;;;-1.15;100.00;102362.84;5074901;28;20072;-50
2024/01/29 05:39:33;;;;;;;10.07;5.40;;;;;;;-1.08;100.00;102351.75;5072473;28;20051;-49
2024/01/29 05:42:01;;;;;;;10.27;5.20;;;;;;;-1.05;100.00;102354.34;5068861;28;20044;-49
2024/01/29 05:44:29;;;;;;;9.10;5.10;;;;;;;-1.08;100.00;102362.06;5067926;28;20156;-49
2024/01/29 05:46:57;;;;;;;9.55;5.25;;;;;;;-1.10;100.00;102357.75;5069572;28;20044;-50
2024/01/29 05:49:25;;;;;;;9.52;5.55;;;;;;;-1.11;100.00;102364.59;5069928;28;20120;-50
2024/01/29 05:51:55;;;;;;;10.23;4.97;;;;;;;-1.10;100.00;102356.00;5069292;28;20052;-49
2024/01/29 05:54:24;;;;;;;12.52;5.35;;;;;;;-1.04;100.00;102369.00;5069647;28;20072;-50
2024/01/29 05:56:52;;;;;;;10.27;5.32;;;;;;;-1.08;100.00;102367.25;5073626;28;20049;-49
2024/01/29 05:59:21;;;;;;;9.02;4.80;;;;;;;-1.10;100.00;102368.06;5073839;28;20143;-50
2024/01/29 06:01:49;;;;;;;9.82;5.07;;;;;;;-1.11;100.00;102372.34;5074191;28;20659;-51
2024/01/29 06:04:17;;;;;;;10.80;5.82;;;;;;;-1.10;100.00;102381.00;5074149;28;20500;-51
2024/01/29 06:06:46;;;;;;;8.68;4.82;;;;;;;-1.09;100.00;102374.94;5073878;28;20071;-48
2024/01/29 06:09:16;;;;;;;9.70;5.35;;;;;;;-1.06;100.00;102380.16;5071427;28;20071;-53
2024/01/29 06:11:44;;;;;;;10.68;5.55;;;;;;;-1.04;100.00;102378.44;5070977;28;20051;-50
2024/01/29 06:14:13;;;;;;;10.25;5.80;;;;;;;-1.00;100.00;102384.50;5073889;28;20044;-50
2024/01/29 06:16:43;;;;;;;10.75;5.28;;;;;;;-0.93;100.00;102381.97;5073825;28;20442;-51
2024/01/29 06:19:15;;;;;;;9.77;5.30;;;;;;;-0.83;100.00;102372.56;5073882;28;20139;-51
2024/01/29 06:21:44;;;;;;;11.07;5.90;;;;;;;-0.74;100.00;102380.38;5073834;28;20048;-50
2024/01/29 06:24:12;;;;;;;9.50;5.40;;;;;;;-0.67;100.00;102383.84;5070582;28;20047;-51
2024/01/29 06:26:43;;;;;;;11.75;5.88;;;;;;;-0.58;100.00;102388.25;5070336;28;20119;-51
2024/01/29 06:29:14;;;;;;;13.05;6.10;;;;;;;-0.33;100.00;102383.19;5070918;28;20683;-48
2024/01/29 06:31:43;;;;;;;11.32;6.22;;;;;;;-0.26;100.00;102383.25;5068296;28;20470;-46
2024/01/29 06:34:11;;;;;;;11.00;6.28;;;;;;;0.09;100.00;102377.31;5072833;28;20479;-46
2024/01/29 06:36:39;;;;;;;13.98;7.22;;;;;;;0.19;100.00;102370.44;5071935;28;20491;-46
2024/01/29 06:39:08;;;;;;;12.80;6.72;;;;;;;0.39;100.00;102370.50;5072787;28;20416;-47
2024/01/29 06:41:36;;;;;;;11.10;6.53;;;;;;;0.36;100.00;102385.16;5070087;28;20051;-46
2024/01/29 06:44:06;;;;;;;12.02;6.40;;;;;;;0.34;100.00;102385.13;5070747;28;20049;-46
2024/01/29 06:46:34;;;;;;;11.68;5.72;;;;;;;0.33;100.00;102386.88;5073255;28;20063;-46
2024/01/29 06:49:02;;;;;;;9.38;5.82;;;;;;;0.38;100.00;102391.19;5073114;28;20032;-47
2024/01/29 06:51:30;;;;;;;10.07;6.03;;;;;;;0.41;100.00;102397.25;5071866;28;20063;-46
2024/01/29 06:54:00;;;;;;;11.23;6.45;;;;;;;0.48;100.00;102387.78;5073044;28;20504;-45
2024/01/29 06:56:28;;;;;;;12.23;5.72;;;;;;;0.53;100.00;102392.94;5071211;28;20033;-46
2024/01/29 06:58:57;;;;;;;10.93;5.82;;;;;;;0.54;100.00;102389.50;5068934;28;20039;-45
2024/01/29 07:01:27;;;;;;;9.65;5.65;;;;;;;0.56;100.00;102391.25;5071280;28;20041;-45
2024/01/29 07:03:55;;;;;;;11.60;5.93;;;;;;;0.56;100.00;102395.53;5072921;28;20045;-46
2024/01/29 07:06:24;;;;;;;9.88;5.90;;;;;;;0.57;100.00;102400.72;5072844;28;20044;-45
2024/01/29 07:08:52;;;;;;;11.52;6.07;;;;;;;0.54;100.00;102400.72;5072693;28;20087;-46
2024/01/29 07:11:20;;;;;;;8.65;5.15;;;;;;;0.53;100.00;102405.91;5073133;28;20488;-45
2024/01/29 07:13:49;;;;;;;10.15;5.10;;;;;;;0.50;100.00;102410.22;5072855;28;20056;-47
2024/01/29 07:16:17;;;;;;;10.23;5.82;;;;;;;0.49;100.00;102421.44;5072406;28;20041;-45
2024/01/29 07:18:47;;;;;;;10.02;5.95;;;;;;;0.54;100.00;102421.44;5069658;28;20522;-47
2024/01/29 07:21:15;;;;;;;9.65;5.68;;;;;;;0.69;100.00;102430.97;5069574;28;20048;-47
2024/01/29 07:23:43;;;;;;;12.38;5.40;;;;;;;0.64;100.00;102443.91;5069511;28;20058;-47
2024/01/29 07:26:11;;;;;;;11.20;5.45;;;;;;;0.60;100.00;102444.75;5071055;28;20040;-44
2024/01/29 07:28:39;;;;;;;9.65;5.72;;;;;;;0.60;100.00;102449.94;5072710;28;20083;-45
2024/01/29 07:31:08;;;;;;;10.93;5.43;;;;;;;0.58;100.00;102438.69;5067553;28;20068;-45
2024/01/29 07:33:36;;;;;;;10.93;6.03;;;;;;;0.59;100.00;102449.94;5070392;28;20043;-45
2024/01/29 07:36:06;;;;;;;12.77;5.60;;;;;;;0.55;100.00;102443.03;5072543;28;20055;-45
2024/01/29 07:38:35;;;;;;;11.07;5.60;;;;;;;0.57;100.00;102446.47;5072344;28;20045;-46
2024/01/29 07:41:03;;;;;;;11.65;5.75;;;;;;;0.66;100.00;102447.34;5069928;28;20055;-47
2024/01/29 07:43:31;;;;;;;10.90;5.78;;;;;;;0.71;100.00;102443.91;5069336;28;20049;-52
2024/01/29 07:45:59;;;;;;;12.07;6.43;;;;;;;0.79;100.00;102449.97;5072633;28;20041;-52
2024/01/29 07:48:28;;;;;;;9.68;5.90;;;;;;;0.75;100.00;102451.69;5072737;28;20072;-45
2024/01/29 07:50:57;;;;;;;9.57;5.65;;;;;;;0.75;100.00;102454.28;5072474;28;20048;-53
2024/01/29 07:53:26;;;;;;;12.63;5.38;;;;;;;0.75;100.00;102449.13;5072356;28;20131;-54
2024/01/29 07:55:55;;;;;;;11.40;5.65;;;;;;;0.74;100.00;102444.78;5072210;28;20068;-48
2024/01/29 07:58:23;;;;;;;9.25;5.13;;;;;;;0.75;100.00;102451.69;5072335;28;20055;-50
2024/01/29 08:00:51;;;;;;;9.73;5.32;;;;;;;0.77;100.00;102447.38;5069219;28;20103;-45
2024/01/29 08:03:19;;;;;;;11.90;6.18;;;;;;;0.88;100.00;102447.38;5069045;28;20048;-50
2024/01/29 08:05:47;;;;;;;12.15;6.05;;;;;;;0.94;100.00;102449.13;5070757;28;20044;-46
2024/01/29 08:08:16;;;;;;;10.18;5.90;;;;;;;1.06;100.00;102446.53;5071830;28;20407;-46
2024/01/29 08:10:46;;;;;;;10.63;5.35;;;;;;;1.19;100.00;102442.22;5069190;28;20055;-52
2024/01/29 08:13:14;;;;;;;11.13;6.25;;;;;;;1.28;100.00;102443.94;5068516;28;20058;-52
2024/01/29 08:15:42;;;;;;;12.98;6.00;;;;;;;1.30;100.00;102450.84;5069448;28;20059;-47
2024/01/29 08:18:11;;;;;;;10.27;5.43;;;;;;;1.42;100.00;102449.97;5071857;28;20041;-53
2024/01/29 08:20:39;;;;;;;10.40;5.72;;;;;;;1.42;100.00;102447.38;5071805;28;20694;-50
2024/01/29 08:23:07;;;;;;;11.18;5.75;;;;;;;1.51;100.00;102449.97;5071785;28;20057;-46
2024/01/29 08:25:35;;;;;;;11.57;5.90;;;;;;;1.77;100.00;102449.06;5070755;28;20495;-47
2024/01/29 08:28:06;;;;;;;10.15;6.30;;;;;;;1.91;100.00;102448.13;5069196;28;20056;-46
2024/01/29 08:30:35;;;;;;;12.40;6.07;;;;;;;2.30;100.00;102461.81;5067038;28;20048;-46
2024/01/29 08:33:03;;;;;;;10.65;5.65;;;;;;;2.57;100.00;102465.16;5067966;28;20137;-47
2024/01/29 08:35:32;;;;;;;10.35;5.80;;;;;;;2.96;100.00;102469.22;5071035;28;20060;-47
2024/01/29 08:38:00;;;;;;;9.45;5.57;;;;;;;3.29;100.00;102469.84;5069084;28;20036;-47
2024/01/29 08:40:35;;;;;;;8.50;5.40;;;;;;;3.55;100.00;102479.13;5069956;28;20115;-47
2024/01/29 08:43:03;;;;;;;9.13;5.15;;;;;;;3.67;100.00;102479.00;5072367;28;20143;-45
2024/01/29 08:45:32;;;;;;;10.02;5.47;;;;;;;3.69;100.00;102476.41;5071901;28;20462;-46
2024/01/29 08:48:03;;;;;;;9.77;5.53;;;;;;;3.80;100.00;102474.53;5071835;28;20045;-45
2024/01/29 08:50:31;;;;;;;9.00;5.43;;;;;;;3.95;100.00;102477.84;5070948;28;20128;-46
2024/01/29 08:53:00;;;;;;;11.02;5.82;;;;;;;4.04;100.00;102477.75;5069052;28;20074;-48
2024/01/29 08:55:28;;;;;;;9.80;5.45;;;;;;;4.19;100.00;102474.97;5068339;28;20055;-47
2024/01/29 08:57:56;;;;;;;10.60;6.07;;;;;;;4.31;100.00;102476.56;5068851;28;20049;-48
2024/01/29 09:00:25;;;;;;;12.18;6.57;;;;;;;4.38;100.00;102466.91;5070694;28;20036;-45
2024/01/29 09:02:54;;;;;;;11.70;6.13;;;;;;;4.39;100.00;102473.84;5071404;28;20072;-46
2024/01/29 09:05:23;;;;;;;12.27;6.63;;;;;;;4.45;100.00;102478.97;5068364;28;20044;-46
2024/01/29 09:07:51;;;;;;;12.32;6.30;;;;;;;4.58;100.00;102482.25;5072444;28;20076;-45
2024/01/29 09:10:20;;;;;;;10.68;5.90;;;;;;;4.72;100.00;102485.56;5073897;28;20036;-47
2024/01/29 09:12:48;;;;;;;12.02;6.03;;;;;;;4.79;100.00;102481.13;5074642;28;20090;-46
2024/01/29 09:15:16;;;;;;;11.27;6.50;;;;;;;4.83;100.00;102480.19;5073447;28;20511;-46
2024/01/29 09:17:45;;;;;;;9.65;6.05;;;;;;;4.86;100.00;102482.72;5074713;28;20048;-45
2024/01/29 09:20:16;;;;;;;12.23;5.82;;;;;;;4.88;100.00;102480.97;5074831;28;20064;-48
2024/01/29 09:22:44;;;;;;;11.20;6.35;;;;;;;4.95;100.00;102479.16;5074684;28;20052;-46
2024/01/29 09:25:13;;;;;;;12.40;5.60;;;;;;;5.01;100.00;102480.78;5073651;28;20052;-46
2024/01/29 09:27:41;;;;;;;9.95;5.90;;;;;;;5.02;100.00;102475.53;5074519;28;20040;-45
2024/01/29 09:30:10;;;;;;;10.55;6.45;;;;;;;5.06;100.00;102476.38;5072652;28;20123;-46
2024/01/29 09:32:38;;;;;;;12.32;6.53;;;;;;;5.05;100.00;102475.50;5071522;28;20399;-46
2024/01/29 09:35:08;;;;;;;12.27;6.88;;;;;;;5.07;100.00;102472.84;5070962;28;20044;-46
2024/01/29 09:37:39;;;;;;;10.18;5.72;;;;;;;5.08;100.00;102475.47;5071544;28;20052;-46
2024/01/29 09:40:12;;;;;;;11.20;6.60;;;;;;;5.15;100.00;102470.13;5070852;28;20522;-53
2024/01/29 09:42:41;;;;;;;;;;;;;;;5.23;100.00;102471.72;5072719;28;20040;-53
2024/01/29 09:45:11;;;;;;;10.07;5.80;;;;;;;5.33;100.00;102468.94;5073905;28;19921;-53
2024/01/29 09:47:41;;;;;;;10.77;6.53;;;;;;;5.38;100.00;102472.34;5072543;28;20052;-54
2024/01/29 09:50:12;;;;;;;11.23;5.78;;;;;;;5.53;100.00;102471.22;5071106;28;20079;-54
2024/01/29 09:52:43;;;;;;;13.98;6.30;;;;;;;5.64;100.00;102478.84;5071294;28;20048;-54
2024/01/29 09:55:11;;;;;;;9.05;5.95;;;;;;;5.77;100.00;102480.34;5071552;28;20101;-51
2024/01/29 09:57:40;;;;;;;10.05;5.95;;;;;;;5.88;100.00;102470.56;5072982;28;20613;-54
2024/01/29 10:00:11;;;;;;;11.20;5.85;;;;;;;6.08;100.00;102477.16;5069657;28;20057;-54
2024/01/29 10:02:42;;;;;;;9.30;6.03;;;;;;;6.17;100.00;102483.97;5071045;28;20052;-54
2024/01/29 10:05:12;;;;;;;9.65;5.60;;;;;;;6.38;100.00;102488.75;5073832;28;20037;-53
2024/01/29 10:07:42;;;;;;;11.05;6.00;;;;;;;6.54;100.00;102493.63;5074368;28;20048;-54
2024/01/29 10:10:11;;;;;;;14.43;6.35;;;;;;;6.70;100.00;102500.25;5074230;28;20174;-55
2024/01/29 10:12:40;;;;;;;11.50;6.28;;;;;;;7.08;100.00;102500.25;5074072;28;20449;-54
2024/01/29 10:15:10;;;;;;;10.95;6.00;;;;;;;7.18;100.00;102513.97;5074173;28;20064;-54
2024/01/29 10:17:38;;;;;;;10.70;6.32;;;;;;;7.40;100.00;102506.44;5070939;28;20098;-53
2024/01/29 10:20:19;;;;;;;12.77;6.43;;;;;;;7.51;100.00;102506.19;5070497;28;20094;-54
2024/01/29 10:22:49;;;;;;;9.98;5.70;;;;;;;7.74;100.00;102505.56;5070302;28;20127;-55
2024/01/29 10:25:17;;;;;;;13.32;7.25;;;;;;;7.83;100.00;102504.47;5071832;28;20067;-55
2024/01/29 10:27:46;;;;;;;11.40;6.90;;;;;;;7.86;100.00;102510.47;5073409;28;20532;-54
2024/01/29 10:30:14;;;;;;;9.75;6.07;;;;;;;7.89;100.00;102520.88;5073280;28;20044;-54
2024/01/29 10:32:42;;;;;;;11.00;6.35;;;;;;;7.86;100.00;102517.50;5072752;28;20052;-54
2024/01/29 10:35:10;;;;;;;10.48;6.10;;;;;;;7.90;100.00;102526.97;5068832;28;20064;-54
2024/01/29 10:37:47;;;;;;;9.52;6.20;;;;;;;7.93;100.00;102521.66;5071791;28;20048;-55
2024/01/29 10:40:21;;;;;;;12.20;6.38;;;;;;;7.91;100.00;102520.84;5073494;28;20505;-54
2024/01/29 10:42:50;;;;;;;10.57;6.03;;;;;;;7.94;100.00;102523.38;5070370;28;20097;-54
2024/01/29 10:45:20;;;;;;;9.88;5.82;;;;;;;7.93;100.00;102532.13;5067226;28;20113;-55
2024/01/29 10:47:53;;;;;;;12.82;6.63;;;;;;;7.99;100.00;102528.47;5070270;28;20527;-55
2024/01/29 10:50:26;;;;;;;10.10;6.53;;;;;;;7.97;100.00;102525.06;5072078;28;20052;-55
2024/01/29 10:52:55;;;;;;;11.32;6.75;;;;;;;8.00;100.00;102527.59;5072972;28;20044;-55
2024/01/29 10:55:25;;;;;;;12.23;6.65;;;;;;;8.03;100.00;102523.13;5069882;28;20044;-55
2024/01/29 10:57:54;;;;;;;12.35;6.35;;;;;;;8.09;100.00;102522.94;5069978;28;20054;-55
2024/01/29 11:00:22;;;;;;;10.45;6.53;;;;;;;8.19;100.00;102523.53;5068213;28;20113;-55
2024/01/29 11:02:51;;;;;;;10.55;6.75;;;;;;;8.33;100.00;102520.56;5071656;28;20049;-55
2024/01/29 11:05:20;;;;;;;11.18;6.97;;;;;;;8.38;100.00;102523.03;5071504;28;20040;-55
2024/01/29 11:07:51;;;;;;;12.13;7.22;;;;;;;8.40;100.00;102523.84;5072790;28;20072;-55
2024/01/29 11:10:22;;;;;;;11.30;7.15;;;;;;;8.58;100.00;102514.59;5069188;28;20495;-56
2024/01/29 11:12:54;;;;;;;10.63;6.68;;;;;;;8.91;100.00;102528.44;5069798;28;20115;-56
2024/01/29 11:15:23;;;;;;;10.45;6.63;;;;;;;8.78;100.00;102520.09;5068236;28;20136;-55
2024/01/29 11:17:51;;;;;;;11.02;7.07;;;;;;;8.77;100.00;102525.41;5069736;28;20384;-46
2024/01/29 11:20:18;;;;;;;12.73;6.45;;;;;;;8.75;100.00;102520.22;5072854;28;20052;-56
2024/01/29 11:22:51;;;;;;;11.98;7.35;;;;;;;8.81;100.00;102521.78;5071556;28;20068;-45
2024/01/29 11:25:20;;;;;;;11.52;6.50;;;;;;;8.86;100.00;102524.25;5072885;28;20054;-46